createdAt,value
2022-07-28T00:02:12.545Z,88.10
2022-07-28T00:04:44.705Z,87.70
2022-07-28T00:07:16.857Z,87.50
2022-07-28T00:09:49.074Z,87.40
2022-07-28T00:12:21.159Z,87.90
2022-07-28T00:14:53.098Z,87.50
2022-07-28T00:17:25.315Z,87.00
2022-07-28T00:19:57.418Z,87.50
2022-07-28T00:22:30.151Z,87.40
2022-07-28T00:25:03.102Z,86.90
2022-07-28T00:27:35.957Z,87.40
2022-07-28T00:30:10.093Z,86.70
2022-07-28T00:32:42.967Z,86.80
2022-07-28T00:35:15.690Z,86.90
2022-07-28T00:37:47.692Z,86.90
2022-07-28T00:40:21.254Z,87.40
2022-07-28T00:42:53.275Z,87.50
2022-07-28T00:45:25.314Z,87.00
2022-07-28T00:47:57.380Z,86.80
2022-07-28T00:50:29.807Z,87.60
2022-07-28T00:53:02.684Z,88.20
2022-07-28T00:56:05.413Z,87.80
2022-07-28T00:58:31.597Z,87.80
2022-07-28T01:01:08.881Z,88.20
2022-07-28T01:03:45.342Z,88.40
2022-07-28T01:06:32.547Z,88.40
2022-07-28T01:09:54.985Z,89.00
2022-07-28T01:12:51.039Z,89.90
2022-07-28T01:15:44.450Z,89.70
2022-07-28T01:18:31.567Z,89.70
2022-07-28T01:21:13.202Z,90.00
2022-07-28T01:24:21.730Z,90.00
2022-07-28T01:27:10.647Z,90.30
2022-07-28T01:30:17.038Z,90.30
2022-07-28T01:33:12.271Z,90.20
2022-07-28T01:36:02.844Z,90.30
2022-07-28T01:38:47.303Z,90.20
2022-07-28T01:41:23.429Z,90.30
2022-07-28T01:44:02.907Z,90.90
2022-07-28T01:46:38.541Z,90.80
2022-07-28T01:49:13.871Z,90.50
2022-07-28T01:51:48.159Z,90.70
2022-07-28T01:54:23.066Z,92.20
2022-07-28T01:57:01.069Z,91.20
2022-07-28T01:59:34.084Z,91.20
2022-07-28T02:02:08.969Z,91.50
2022-07-28T02:04:44.219Z,91.90
2022-07-28T02:07:19.524Z,91.80
2022-07-28T02:09:54.825Z,91.60
2022-07-28T02:12:30.516Z,93.10
2022-07-28T02:15:06.456Z,91.70
2022-07-28T02:17:44.893Z,91.60
2022-07-28T02:20:18.512Z,91.60
2022-07-28T02:22:53.097Z,91.90
2022-07-28T02:25:27.825Z,92.00
2022-07-28T02:28:05.983Z,92.00
2022-07-28T02:30:46.915Z,92.30
2022-07-28T02:33:59.294Z,91.90
2022-07-28T02:36:36.679Z,92.10
2022-07-28T02:39:21.719Z,92.20
2022-07-28T02:42:04.262Z,92.10
2022-07-28T02:44:42.670Z,92.60
2022-07-28T02:47:22.640Z,92.30
2022-07-28T02:49:58.354Z,92.50
2022-07-28T02:52:33.957Z,92.50
2022-07-28T02:55:07.214Z,92.80
2022-07-28T02:57:43.766Z,93.30
2022-07-28T03:00:16.859Z,93.30
2022-07-28T03:02:49.419Z,93.00
2022-07-28T03:05:23.015Z,92.90
2022-07-28T03:07:57.752Z,92.80
2022-07-28T03:10:33.131Z,92.90
2022-07-28T03:13:07.259Z,92.90
2022-07-28T03:15:40.267Z,92.90
2022-07-28T03:18:13.492Z,93.40
2022-07-28T03:20:46.062Z,93.40
2022-07-28T03:23:18.759Z,93.00
2022-07-28T03:25:54.244Z,93.90
2022-07-28T03:28:30.727Z,93.50
2022-07-28T03:31:09.520Z,93.50
2022-07-28T03:33:42.800Z,93.90
2022-07-28T03:36:18.986Z,93.90
2022-07-28T03:39:02.968Z,93.80
2022-07-28T03:41:38.675Z,94.10
2022-07-28T03:44:14.939Z,94.20
2022-07-28T03:47:00.210Z,94.10
2022-07-28T03:49:32.363Z,94.00
2022-07-28T03:52:05.099Z,94.30
2022-07-28T03:54:37.270Z,93.90
2022-07-28T03:57:09.905Z,94.00
2022-07-28T03:59:42.867Z,93.80
2022-07-28T04:02:15.015Z,93.90
2022-07-28T04:04:47.040Z,94.00
2022-07-28T04:07:19.089Z,94.30
2022-07-28T04:09:51.096Z,94.10
2022-07-28T04:12:23.024Z,94.70
2022-07-28T04:14:55.042Z,94.40
2022-07-28T04:17:27.020Z,95.60
2022-07-28T04:19:59.002Z,94.90
2022-07-28T04:22:30.900Z,95.10
2022-07-28T04:25:03.204Z,95.20
2022-07-28T04:27:36.649Z,95.20
2022-07-28T04:30:13.274Z,95.50
2022-07-28T04:32:51.154Z,95.10
2022-07-28T04:35:24.997Z,96.00
2022-07-28T04:37:58.925Z,95.70
2022-07-28T04:40:31.529Z,95.70
2022-07-28T04:43:05.982Z,96.00
2022-07-28T04:45:38.788Z,95.90
2022-07-28T04:48:18.551Z,96.40
2022-07-28T04:50:52.593Z,96.40
2022-07-28T04:53:25.093Z,96.50
2022-07-28T04:55:57.375Z,96.50
2022-07-28T04:58:30.945Z,96.20
2022-07-28T05:01:03.263Z,96.20
2022-07-28T05:03:36.467Z,96.50
2022-07-28T05:06:08.554Z,96.50
2022-07-28T05:08:40.525Z,96.60
2022-07-28T05:11:12.553Z,96.60
2022-07-28T05:13:44.530Z,96.40
2022-07-28T05:16:16.632Z,96.60
2022-07-28T05:18:49.950Z,96.80
2022-07-28T05:21:22.695Z,96.90
2022-07-28T05:23:55.445Z,97.00
2022-07-28T05:26:28.605Z,96.90
2022-07-28T05:29:03.054Z,97.00
2022-07-28T05:32:17.245Z,97.10
2022-07-28T05:34:49.894Z,97.50
2022-07-28T05:37:21.977Z,97.00
2022-07-28T05:39:53.911Z,96.90
2022-07-28T05:42:28.364Z,97.30
2022-07-28T05:45:15.586Z,97.30
2022-07-28T05:47:52.500Z,97.30
2022-07-28T05:50:27.539Z,97.40
2022-07-28T05:52:59.839Z,97.30
2022-07-28T05:55:31.820Z,97.10
2022-07-28T05:58:03.996Z,97.30
2022-07-28T06:00:36.216Z,97.30
2022-07-28T06:03:08.549Z,96.70
2022-07-28T06:06:00.758Z,96.90
2022-07-28T06:08:34.631Z,97.10
2022-07-28T06:11:11.391Z,96.70
2022-07-28T06:13:46.692Z,95.90
2022-07-28T06:16:21.073Z,95.30
2022-07-28T06:18:53.994Z,95.30
2022-07-28T06:21:26.231Z,94.80
2022-07-28T06:23:58.501Z,93.50
2022-07-28T06:26:31.552Z,92.10
2022-07-28T06:29:04.380Z,92.60
2022-07-28T06:31:36.966Z,90.70
2022-07-28T06:34:10.224Z,88.80
2022-07-28T06:36:42.261Z,88.30
2022-07-28T06:39:14.471Z,85.80
2022-07-28T06:41:46.484Z,85.00
2022-07-28T06:44:19.970Z,83.50
2022-07-28T06:46:52.421Z,79.70
2022-07-28T06:49:24.909Z,77.30
2022-07-28T06:51:57.135Z,77.90
2022-07-28T06:54:29.355Z,78.50
2022-07-28T06:57:01.512Z,75.70
2022-07-28T06:59:35.083Z,75.40
2022-07-28T07:02:07.212Z,75.40
2022-07-28T07:04:39.565Z,73.70
2022-07-28T07:07:42.986Z,71.40
2022-07-28T07:10:15.963Z,72.00
2022-07-28T07:12:48.130Z,69.00
2022-07-28T07:15:20.386Z,66.50
2022-07-28T07:17:54.222Z,67.00
2022-07-28T07:20:26.428Z,65.80
2022-07-28T07:22:58.949Z,67.80
2022-07-28T07:25:30.986Z,65.00
2022-07-28T07:28:03.149Z,65.10
2022-07-28T07:30:35.421Z,65.80
2022-07-28T07:33:10.564Z,64.30
2022-07-28T07:35:43.130Z,65.50
2022-07-28T07:38:15.507Z,64.30
2022-07-28T07:40:51.350Z,64.80
2022-07-28T07:43:23.605Z,63.20
2022-07-28T07:45:55.622Z,64.80
2022-07-28T07:48:30.989Z,63.90
2022-07-28T07:51:03.722Z,62.70
2022-07-28T07:53:36.247Z,61.30
2022-07-28T07:56:08.411Z,60.70
2022-07-28T07:58:40.625Z,60.20
2022-07-28T08:01:13.288Z,60.60
2022-07-28T08:04:05.822Z,61.80
2022-07-28T08:06:40.735Z,60.80
2022-07-28T08:09:13.200Z,60.00
2022-07-28T08:11:46.128Z,60.30
2022-07-28T08:14:18.755Z,61.30
2022-07-28T08:16:51.326Z,61.10
2022-07-28T08:19:23.916Z,60.80
2022-07-28T08:21:56.456Z,59.70
2022-07-28T08:24:33.568Z,60.20
2022-07-28T08:27:06.559Z,60.40
2022-07-28T08:29:39.612Z,59.40
2022-07-28T08:32:15.240Z,62.60
2022-07-28T08:34:47.512Z,60.90
2022-07-28T08:37:19.883Z,61.10
2022-07-28T08:39:52.069Z,62.70
2022-07-28T08:42:39.113Z,62.80
2022-07-28T08:45:37.229Z,62.20
2022-07-28T08:48:12.243Z,61.80
2022-07-28T08:50:46.219Z,63.80
2022-07-28T08:53:20.922Z,65.00
2022-07-28T08:55:53.763Z,63.60
2022-07-28T08:58:26.316Z,64.90
2022-07-28T09:00:59.254Z,66.70
2022-07-28T09:03:42.762Z,66.50
2022-07-28T09:06:15.561Z,68.80
2022-07-28T09:08:48.632Z,69.90
2022-07-28T09:11:20.770Z,69.40
2022-07-28T09:13:54.134Z,70.60
2022-07-28T09:16:27.067Z,69.90
2022-07-28T09:18:59.322Z,69.50
2022-07-28T09:21:31.760Z,69.70
2022-07-28T09:24:04.385Z,68.90
2022-07-28T09:26:37.096Z,69.70
2022-07-28T09:29:29.926Z,71.50
2022-07-28T09:32:02.391Z,74.60
2022-07-28T09:34:44.747Z,71.40
2022-07-28T09:37:27.953Z,73.30
2022-07-28T09:40:11.255Z,72.20
2022-07-28T09:42:50.267Z,72.70
2022-07-28T09:45:29.422Z,73.30
2022-07-28T09:48:11.157Z,72.10
2022-07-28T09:50:44.502Z,71.50
2022-07-28T09:53:27.403Z,73.00
2022-07-28T09:56:02.115Z,72.60
2022-07-28T09:58:34.690Z,72.30
2022-07-28T10:01:13.234Z,72.90
2022-07-28T10:03:51.627Z,71.50
2022-07-28T10:06:31.989Z,71.40
2022-07-28T10:09:08.189Z,71.80
2022-07-28T10:11:45.077Z,71.40
2022-07-28T10:14:21.444Z,71.60
2022-07-28T10:17:06.299Z,70.80
2022-07-28T10:19:41.117Z,74.70
2022-07-28T10:22:14.571Z,71.60
2022-07-28T10:24:52.748Z,70.80
2022-07-28T10:27:26.425Z,70.60
2022-07-28T10:30:15.666Z,71.40
2022-07-28T10:32:47.881Z,70.10
2022-07-28T10:35:21.026Z,69.50
2022-07-28T10:38:05.174Z,69.80
2022-07-28T10:40:46.848Z,68.40
2022-07-28T10:43:20.866Z,69.00
2022-07-28T10:46:05.713Z,68.40
2022-07-28T10:48:38.937Z,70.20
2022-07-28T10:51:12.142Z,68.40
2022-07-28T10:53:59.758Z,67.50
2022-07-28T10:56:46.733Z,67.30
2022-07-28T10:59:39.695Z,68.50
2022-07-28T11:02:55.415Z,69.50
2022-07-28T11:05:39.113Z,69.30
2022-07-28T11:08:20.120Z,69.70
2022-07-28T11:11:08.953Z,69.30
2022-07-28T11:13:41.779Z,70.20
2022-07-28T11:16:13.854Z,70.30
2022-07-28T11:19:04.720Z,70.40
2022-07-28T11:22:12.156Z,69.00
2022-07-28T11:25:17.897Z,67.60
2022-07-28T11:27:54.482Z,69.00
2022-07-28T11:30:32.909Z,66.30
2022-07-28T11:33:25.305Z,67.80
2022-07-28T11:36:17.201Z,66.90
2022-07-28T11:39:43.366Z,68.00
2022-07-28T11:42:35.754Z,68.70
2022-07-28T11:45:23.454Z,69.50
2022-07-28T11:48:16.905Z,67.10
2022-07-28T11:51:14.059Z,66.30
2022-07-28T11:53:49.617Z,65.30
2022-07-28T11:56:25.340Z,65.30
2022-07-28T11:59:02.669Z,65.20
2022-07-28T12:01:36.980Z,66.20
2022-07-28T12:04:28.806Z,67.40
2022-07-28T12:07:02.065Z,67.30
2022-07-28T12:09:42.330Z,65.80
2022-07-28T12:12:14.845Z,65.20
2022-07-28T12:14:46.999Z,66.10
2022-07-28T12:17:19.664Z,67.30
2022-07-28T12:20:06.001Z,66.20
2022-07-28T12:23:07.213Z,65.50
2022-07-28T12:25:47.034Z,63.60
2022-07-28T12:28:22.606Z,62.50
2022-07-28T12:30:54.957Z,62.60
2022-07-28T12:33:40.741Z,63.50
2022-07-28T12:36:12.975Z,63.00
2022-07-28T12:38:51.241Z,64.00
2022-07-28T12:41:32.635Z,66.50
2022-07-28T12:44:06.341Z,64.80
2022-07-28T12:47:08.362Z,62.60
2022-07-28T12:49:43.993Z,63.40
2022-07-28T12:52:22.546Z,64.30
2022-07-28T12:54:56.774Z,63.30
2022-07-28T12:57:49.241Z,60.30
2022-07-28T13:00:31.287Z,59.60
2022-07-28T13:03:29.889Z,59.00
2022-07-28T13:06:10.789Z,59.60
2022-07-28T13:08:46.588Z,58.70
2022-07-28T13:11:45.751Z,58.20
2022-07-28T13:14:39.833Z,59.40
2022-07-28T13:17:13.015Z,58.60
2022-07-28T13:19:46.431Z,58.20
2022-07-28T13:22:30.306Z,57.20
2022-07-28T13:25:07.960Z,57.50
2022-07-28T13:27:41.678Z,57.00
2022-07-28T13:30:14.136Z,59.40
2022-07-28T13:32:46.454Z,57.50
2022-07-28T13:35:20.851Z,58.60
2022-07-28T13:37:53.677Z,59.20
2022-07-28T13:40:25.791Z,58.10
2022-07-28T13:42:58.195Z,57.80
2022-07-28T13:45:30.717Z,57.70
2022-07-28T13:48:06.760Z,57.20
2022-07-28T13:50:39.405Z,57.70
2022-07-28T13:53:12.194Z,57.40
2022-07-28T13:55:44.297Z,58.00
2022-07-28T13:58:16.362Z,57.00
2022-07-28T14:00:48.969Z,57.40
2022-07-28T14:03:21.132Z,57.80
2022-07-28T14:05:53.314Z,57.10
2022-07-28T14:08:26.733Z,56.80
2022-07-28T14:11:01.260Z,57.30
2022-07-28T14:13:47.787Z,60.50
2022-07-28T14:16:24.273Z,59.60
2022-07-28T14:19:13.903Z,57.50
2022-07-28T14:21:48.396Z,56.20
2022-07-28T14:24:21.106Z,55.50
2022-07-28T14:26:53.496Z,56.30
2022-07-28T14:29:25.952Z,55.80
2022-07-28T14:31:59.512Z,54.50
2022-07-28T14:34:31.785Z,54.30
2022-07-28T14:37:08.859Z,55.00
2022-07-28T14:39:42.145Z,55.50
2022-07-28T14:42:14.590Z,55.90
2022-07-28T14:44:46.926Z,53.70
2022-07-28T14:47:20.179Z,54.00
2022-07-28T14:50:13.589Z,55.00
2022-07-28T14:52:45.808Z,54.60
2022-07-28T14:55:20.227Z,54.80
2022-07-28T14:57:55.010Z,54.20
2022-07-28T15:00:28.645Z,53.70
2022-07-28T15:03:01.402Z,51.90
2022-07-28T15:05:34.770Z,53.90
2022-07-28T15:08:06.854Z,53.80
2022-07-28T15:10:39.002Z,54.00
2022-07-28T15:13:11.063Z,54.00
2022-07-28T15:15:44.898Z,54.20
2022-07-28T15:18:19.624Z,54.40
2022-07-28T15:20:52.153Z,53.20
2022-07-28T15:23:27.517Z,54.00
2022-07-28T15:25:59.836Z,53.50
2022-07-28T15:28:33.016Z,54.90
2022-07-28T15:31:08.416Z,53.50
2022-07-28T15:33:48.366Z,52.20
2022-07-28T15:36:30.158Z,52.40
2022-07-28T15:39:08.946Z,52.90
2022-07-28T15:41:46.543Z,52.50
2022-07-28T15:44:22.407Z,53.30
2022-07-28T15:47:00.710Z,53.80
2022-07-28T15:49:36.300Z,53.30
2022-07-28T15:52:08.555Z,51.90
2022-07-28T15:54:40.966Z,53.00
2022-07-28T15:57:14.212Z,53.30
2022-07-28T15:59:50.065Z,53.40
2022-07-28T16:02:23.007Z,53.40
2022-07-28T16:04:55.192Z,52.50
2022-07-28T16:07:29.485Z,52.60
2022-07-28T16:10:03.135Z,53.50
2022-07-28T16:12:35.730Z,53.50
2022-07-28T16:15:08.940Z,53.60
2022-07-28T16:17:44.691Z,54.30
2022-07-28T16:20:17.810Z,53.00
2022-07-28T16:22:51.211Z,53.00
2022-07-28T16:25:26.251Z,53.20
2022-07-28T16:27:58.612Z,53.00
2022-07-28T16:30:33.434Z,53.60
2022-07-28T16:33:08.187Z,54.40
2022-07-28T16:35:40.576Z,54.10
2022-07-28T16:38:12.937Z,54.00
2022-07-28T16:40:45.103Z,54.30
2022-07-28T16:43:17.599Z,54.30
2022-07-28T16:45:49.752Z,54.40
2022-07-28T16:48:22.043Z,53.90
2022-07-28T16:50:54.915Z,54.40
2022-07-28T16:53:27.458Z,54.80
2022-07-28T16:55:59.702Z,53.70
2022-07-28T16:58:31.932Z,54.60
2022-07-28T17:01:04.305Z,54.20
2022-07-28T17:03:36.609Z,54.40
2022-07-28T17:06:10.857Z,54.30
2022-07-28T17:08:43.086Z,54.60
2022-07-28T17:11:15.193Z,54.30
2022-07-28T17:13:48.720Z,54.20
2022-07-28T17:16:21.035Z,54.40
2022-07-28T17:18:53.510Z,54.70
2022-07-28T17:21:26.175Z,54.60
2022-07-28T17:23:58.630Z,55.20
2022-07-28T17:29:26.511Z,56.00
2022-07-28T17:31:59.100Z,55.70
2022-07-28T17:34:32.126Z,56.00
2022-07-28T17:37:05.812Z,56.00
2022-07-28T17:39:38.041Z,56.20
2022-07-28T17:42:10.213Z,56.30
2022-07-28T17:44:42.820Z,56.40
2022-07-28T17:47:16.513Z,56.80
2022-07-28T17:49:52.373Z,56.80
2022-07-28T17:52:25.327Z,56.70
2022-07-28T17:55:16.566Z,57.30
2022-07-28T17:58:22.748Z,57.40
2022-07-28T18:01:12.194Z,58.30
2022-07-28T18:03:56.691Z,57.70
2022-07-28T18:06:35.637Z,58.10
2022-07-28T18:09:10.610Z,58.40
2022-07-28T18:11:55.984Z,58.20
2022-07-28T18:14:31.057Z,59.00
2022-07-28T18:17:03.604Z,58.40
2022-07-28T18:19:35.898Z,58.70
2022-07-28T18:22:08.136Z,58.50
2022-07-28T18:24:40.622Z,59.40
2022-07-28T18:27:12.937Z,59.00
2022-07-28T18:29:45.135Z,59.30
2022-07-28T18:32:18.818Z,59.10
2022-07-28T18:34:50.959Z,59.30
2022-07-28T18:37:23.080Z,59.30
2022-07-28T18:39:55.400Z,59.50
2022-07-28T18:42:27.603Z,59.50
2022-07-28T18:45:02.542Z,59.50
2022-07-28T18:47:37.503Z,59.60
2022-07-28T18:50:30.387Z,59.90
2022-07-28T18:53:31.142Z,59.90
2022-07-28T18:56:27.693Z,59.90
2022-07-28T18:58:59.903Z,60.10
2022-07-28T19:01:32.373Z,60.00
2022-07-28T19:04:05.136Z,60.30
2022-07-28T19:06:37.677Z,60.70
2022-07-28T19:09:09.948Z,60.40
2022-07-28T19:11:45.972Z,60.40
2022-07-28T19:14:19.215Z,61.70
2022-07-28T19:16:52.012Z,61.20
2022-07-28T19:19:24.562Z,62.10
2022-07-28T19:21:56.833Z,61.10
2022-07-28T19:24:29.041Z,61.30
2022-07-28T19:27:05.928Z,62.10
2022-07-28T19:29:38.572Z,61.80
2022-07-28T19:32:10.917Z,61.60
2022-07-28T19:34:43.074Z,61.70
2022-07-28T19:37:17.035Z,62.60
2022-07-28T19:39:50.067Z,61.80
2022-07-28T19:42:22.265Z,62.20
2022-07-28T19:44:56.135Z,62.60
2022-07-28T19:47:28.676Z,62.20
2022-07-28T19:50:00.863Z,62.40
2022-07-28T19:52:33.857Z,62.40
2022-07-28T19:55:07.885Z,63.10
2022-07-28T19:57:42.339Z,62.90
2022-07-28T20:00:19.179Z,62.80
2022-07-28T20:02:51.669Z,62.90
2022-07-28T20:05:24.340Z,63.10
2022-07-28T20:07:56.633Z,62.90
2022-07-28T20:10:29.031Z,63.60
2022-07-28T20:13:02.606Z,63.20
2022-07-28T20:15:35.109Z,63.40
2022-07-28T20:18:09.813Z,62.90
2022-07-28T20:20:42.501Z,63.40
2022-07-28T20:23:15.625Z,64.40
2022-07-28T20:25:47.923Z,64.40
2022-07-28T20:28:21.469Z,64.50
2022-07-28T20:30:54.689Z,64.70
2022-07-28T20:33:27.451Z,65.30
2022-07-28T20:36:00.810Z,66.40
2022-07-28T20:38:33.792Z,67.00
2022-07-28T20:41:07.459Z,70.50
2022-07-28T20:43:39.642Z,76.40
2022-07-28T20:46:11.759Z,79.00
2022-07-28T20:48:43.897Z,82.90
2022-07-28T20:51:18.172Z,82.80
2022-07-28T20:53:50.419Z,82.80
2022-07-28T20:56:34.762Z,85.00
2022-07-28T20:59:07.705Z,87.50
2022-07-28T21:01:41.013Z,87.00
2022-07-28T21:04:13.561Z,85.20
2022-07-28T21:06:51.130Z,86.00
2022-07-28T21:09:24.357Z,86.40
2022-07-28T21:11:56.628Z,89.60
2022-07-28T21:14:28.708Z,90.60
2022-07-28T21:17:03.442Z,90.30
2022-07-28T21:19:35.771Z,91.00
2022-07-28T21:22:08.115Z,92.10
2022-07-28T21:24:40.430Z,92.00
2022-07-28T21:27:12.904Z,91.80
2022-07-28T21:29:48.737Z,92.50
2022-07-28T21:32:21.623Z,93.90
2022-07-28T21:34:53.972Z,93.70
2022-07-28T21:37:26.230Z,94.50
2022-07-28T21:39:58.411Z,94.90
2022-07-28T21:42:31.065Z,95.30
2022-07-28T21:45:03.561Z,95.30
2022-07-28T21:47:40.659Z,95.70
2022-07-28T21:50:13.689Z,96.70
2022-07-28T21:52:45.959Z,97.30
2022-07-28T21:55:18.092Z,98.10
2022-07-28T21:57:50.268Z,99.00
2022-07-28T22:00:22.595Z,99.90
2022-07-28T22:02:54.833Z,99.90
2022-07-28T22:05:27.299Z,99.90
2022-07-28T22:08:00.472Z,99.90
2022-07-28T22:10:32.545Z,99.90
2022-07-28T22:13:04.697Z,99.90
2022-07-28T22:15:36.830Z,99.90
2022-07-28T22:18:13.443Z,99.90
2022-07-28T22:20:48.611Z,99.90
2022-07-28T22:23:29.198Z,99.90
2022-07-28T22:26:02.418Z,99.90
2022-07-28T22:28:34.372Z,99.90
2022-07-28T22:31:08.674Z,99.90
2022-07-28T22:33:41.733Z,99.90
2022-07-28T22:36:14.296Z,99.90
2022-07-28T22:38:46.554Z,99.90
2022-07-28T22:41:18.739Z,99.90
2022-07-28T22:43:51.095Z,99.90
2022-07-28T22:46:23.198Z,99.90
2022-07-28T22:48:55.444Z,99.90
2022-07-28T22:51:27.934Z,99.90
2022-07-28T22:54:00.579Z,99.90
2022-07-28T22:56:35.012Z,99.90
2022-07-28T22:59:10.228Z,99.90
2022-07-28T23:01:44.543Z,99.90
2022-07-28T23:04:17.188Z,99.90
2022-07-28T23:06:50.708Z,99.90
2022-07-28T23:09:23.070Z,99.90
2022-07-28T23:11:55.940Z,99.90
2022-07-28T23:14:28.486Z,99.90
2022-07-28T23:17:00.577Z,99.90
2022-07-28T23:19:32.819Z,99.90
2022-07-28T23:22:05.064Z,99.90
2022-07-28T23:24:37.117Z,99.90
2022-07-28T23:27:09.646Z,99.90
2022-07-28T23:29:41.912Z,99.90
2022-07-28T23:32:17.125Z,99.90
2022-07-28T23:34:49.733Z,99.90
2022-07-28T23:37:21.747Z,99.90
2022-07-28T23:39:54.450Z,99.90
2022-07-28T23:42:26.634Z,99.90
2022-07-28T23:44:58.730Z,99.90
2022-07-28T23:47:30.700Z,99.90
2022-07-28T23:50:05.860Z,99.90
2022-07-28T23:52:38.180Z,99.90
2022-07-28T23:55:10.466Z,99.90
2022-07-28T23:57:42.498Z,99.90
